createdAt,value
2022-11-17T00:01:55.144Z,98712.42
2022-11-17T00:04:29.988Z,98714.98
2022-11-17T00:07:03.637Z,98712.30
2022-11-17T00:09:36.985Z,98706.27
2022-11-17T00:12:32.604Z,98702.84
2022-11-17T00:15:03.179Z,98701.22
2022-11-17T00:17:36.653Z,98705.41
2022-11-17T00:20:30.610Z,98696.25
2022-11-17T00:23:05.443Z,98698.07
2022-11-17T00:25:38.731Z,98694.42
2022-11-17T00:28:12.093Z,98686.52
2022-11-17T00:31:03.544Z,98686.52
2022-11-17T00:33:54.744Z,98684.86
2022-11-17T00:36:29.215Z,98679.12
2022-11-17T00:39:02.785Z,98685.20
2022-11-17T00:41:36.838Z,98675.87
2022-11-17T00:44:11.117Z,98672.52
2022-11-17T00:46:45.680Z,98672.64
2022-11-17T00:49:21.638Z,98674.55
2022-11-17T00:51:56.145Z,98670.23
2022-11-17T00:54:29.526Z,98669.27
2022-11-17T00:57:03.096Z,98660.56
2022-11-17T00:59:36.700Z,98661.98
2022-11-17T01:02:10.206Z,98656.12
2022-11-17T01:04:43.697Z,98655.26
2022-11-17T01:07:17.394Z,98651.62
2022-11-17T01:09:50.987Z,98646.50
2022-11-17T01:12:24.661Z,98654.18
2022-11-17T01:14:58.247Z,98645.53
2022-11-17T01:17:31.756Z,98640.41
2022-11-17T01:20:05.961Z,98638.07
2022-11-17T01:22:39.602Z,98634.77
2022-11-17T01:25:13.198Z,98635.04
2022-11-17T01:27:46.713Z,98633.55
2022-11-17T01:30:20.679Z,98630.16
2022-11-17T01:32:54.185Z,98624.17
2022-11-17T01:35:27.672Z,98617.41
2022-11-17T01:38:01.199Z,98616.81
2022-11-17T01:40:34.710Z,98619.38
2022-11-17T01:43:12.613Z,98618.98
2022-11-17T01:45:45.095Z,98613.80
2022-11-17T01:48:18.308Z,98613.59
2022-11-17T01:50:51.860Z,98605.05
2022-11-17T01:53:28.628Z,98599.17
2022-11-17T01:56:05.215Z,98602.39
2022-11-17T01:58:41.748Z,98603.02
2022-11-17T02:01:15.744Z,98609.73
2022-11-17T02:03:52.464Z,98598.23
2022-11-17T02:06:29.214Z,98602.40
2022-11-17T02:09:04.476Z,98592.72
2022-11-17T02:11:38.007Z,98592.72
2022-11-17T02:14:11.970Z,98586.91
2022-11-17T02:16:46.176Z,98596.29
2022-11-17T02:19:21.288Z,98595.39
2022-11-17T02:22:11.044Z,98590.27
2022-11-17T02:25:22.994Z,98591.35
2022-11-17T02:28:01.354Z,98588.85
2022-11-17T02:30:37.982Z,98586.23
2022-11-17T02:33:14.744Z,98582.75
2022-11-17T02:35:51.070Z,98582.86
2022-11-17T02:38:31.006Z,98579.69
2022-11-17T02:41:08.898Z,98574.77
2022-11-17T02:44:00.286Z,98572.48
2022-11-17T02:46:38.177Z,98576.23
2022-11-17T02:49:16.355Z,98567.59
2022-11-17T02:51:52.644Z,98564.11
2022-11-17T02:54:28.489Z,98563.95
2022-11-17T02:57:02.026Z,98552.91
2022-11-17T02:59:38.920Z,98560.59
2022-11-17T03:02:32.704Z,98550.17
2022-11-17T03:05:13.551Z,98549.84
2022-11-17T03:08:06.049Z,98553.73
2022-11-17T03:10:44.759Z,98547.36
2022-11-17T03:13:21.892Z,98545.39
2022-11-17T03:15:58.425Z,98546.34
2022-11-17T03:18:34.621Z,98542.18
2022-11-17T03:21:12.597Z,98539.68
2022-11-17T03:23:48.759Z,98538.94
2022-11-17T03:26:24.889Z,98540.70
2022-11-17T03:29:01.420Z,98539.73
2022-11-17T03:31:36.493Z,98539.00
2022-11-17T03:34:12.815Z,98539.12
2022-11-17T03:36:49.641Z,98534.95
2022-11-17T03:39:26.292Z,98540.81
2022-11-17T03:42:02.756Z,98534.09
2022-11-17T03:44:38.296Z,98532.45
2022-11-17T03:47:13.637Z,98528.28
2022-11-17T03:49:50.792Z,98525.72
2022-11-17T03:52:25.575Z,98529.89
2022-11-17T03:55:00.802Z,98525.45
2022-11-17T03:57:37.659Z,98521.87
2022-11-17T04:00:15.047Z,98524.38
2022-11-17T04:02:50.341Z,98525.98
2022-11-17T04:05:24.344Z,98521.76
2022-11-17T04:08:00.230Z,98523.52
2022-11-17T04:10:40.421Z,98524.38
2022-11-17T04:15:59.267Z,98508.44
2022-11-17T04:18:33.409Z,98520.66
2022-11-17T04:21:07.758Z,98519.52
2022-11-17T04:23:41.097Z,98516.01
2022-11-17T04:26:32.082Z,98518.62
2022-11-17T04:29:07.154Z,98520.33
2022-11-17T04:31:40.743Z,98515.00
2022-11-17T04:34:14.275Z,98515.09
2022-11-17T04:36:48.404Z,98515.09
2022-11-17T04:39:21.833Z,98519.38
2022-11-17T04:41:56.805Z,98518.78
2022-11-17T04:44:31.791Z,98512.77
2022-11-17T04:47:07.065Z,98516.28
2022-11-17T04:49:40.300Z,98511.27
2022-11-17T04:52:13.780Z,98513.03
2022-11-17T04:54:47.105Z,98507.91
2022-11-17T04:57:20.613Z,98508.86
2022-11-17T04:59:54.386Z,98511.48
2022-11-17T05:02:27.865Z,98509.93
2022-11-17T05:05:01.505Z,98501.67
2022-11-17T05:07:35.166Z,98503.74
2022-11-17T05:10:12.280Z,98507.55
2022-11-17T05:13:04.053Z,98509.50
2022-11-17T05:15:59.458Z,98501.92
2022-11-17T05:18:33.096Z,98501.23
2022-11-17T05:21:07.892Z,98501.31
2022-11-17T05:23:56.078Z,98498.75
2022-11-17T05:26:31.584Z,98506.44
2022-11-17T05:29:06.861Z,98503.30
2022-11-17T05:31:40.279Z,98500.03
2022-11-17T05:34:15.354Z,98502.04
2022-11-17T05:36:48.976Z,98497.83
2022-11-17T05:39:22.388Z,98500.53
2022-11-17T05:41:55.834Z,98506.41
2022-11-17T05:44:29.187Z,98503.84
2022-11-17T05:47:02.990Z,98503.20
2022-11-17T05:49:36.479Z,98503.34
2022-11-17T05:52:10.173Z,98502.64
2022-11-17T05:54:43.548Z,98504.50
2022-11-17T05:57:20.100Z,98507.02
2022-11-17T05:59:56.346Z,98504.26
2022-11-17T06:02:32.724Z,98499.02
2022-11-17T06:05:07.422Z,98502.28
2022-11-17T06:07:41.415Z,98498.77
2022-11-17T06:10:15.343Z,98500.53
2022-11-17T06:12:48.926Z,98496.45
2022-11-17T06:15:22.574Z,98502.69
2022-11-17T06:17:58.849Z,98496.91
2022-11-17T06:20:35.956Z,98497.52
2022-11-17T06:23:12.072Z,98488.81
2022-11-17T06:25:46.110Z,98491.38
2022-11-17T06:28:22.203Z,98493.89
2022-11-17T06:30:55.813Z,98490.52
2022-11-17T06:33:31.185Z,98499.02
2022-11-17T06:36:07.443Z,98502.59
2022-11-17T06:38:40.852Z,98497.62
2022-11-17T06:41:14.244Z,98499.62
2022-11-17T06:43:47.708Z,98491.33
2022-11-17T06:46:21.651Z,98493.44
2022-11-17T06:48:56.645Z,98499.58
2022-11-17T06:51:30.003Z,98498.42
2022-11-17T06:54:05.467Z,98491.42
2022-11-17T06:56:38.779Z,98494.66
2022-11-17T06:59:12.469Z,98484.73
2022-11-17T07:01:45.835Z,98488.74
2022-11-17T07:04:19.485Z,98490.13
2022-11-17T07:06:52.894Z,98489.06
2022-11-17T07:09:26.430Z,98487.20
2022-11-17T07:12:00.305Z,98490.09
2022-11-17T07:14:33.990Z,98481.23
2022-11-17T07:17:08.088Z,98493.17
2022-11-17T07:19:41.597Z,98488.91
2022-11-17T07:22:14.975Z,98489.17
2022-11-17T07:24:48.483Z,98487.53
2022-11-17T07:27:21.962Z,98493.34
2022-11-17T07:29:55.370Z,98502.28
2022-11-17T07:32:29.059Z,98503.15
2022-11-17T07:35:04.642Z,98495.73
2022-11-17T07:37:38.124Z,98503.20
2022-11-17T07:40:13.612Z,98502.77
2022-11-17T07:42:51.885Z,98510.11
2022-11-17T07:45:31.422Z,98506.47
2022-11-17T07:48:02.228Z,98506.82
2022-11-17T07:50:37.188Z,98510.12
2022-11-17T07:53:10.740Z,98518.59
2022-11-17T07:55:44.055Z,98511.78
2022-11-17T07:58:17.495Z,98510.12
2022-11-17T08:00:50.940Z,98508.74
2022-11-17T08:03:24.815Z,98518.90
2022-11-17T08:05:58.658Z,98515.05
2022-11-17T08:08:32.259Z,98512.88
2022-11-17T08:11:06.946Z,98505.73
2022-11-17T08:13:41.567Z,98506.68
2022-11-17T08:16:15.031Z,98511.11
2022-11-17T08:18:52.031Z,98505.46
2022-11-17T08:21:23.597Z,98504.98
2022-11-17T08:23:57.132Z,98498.04
2022-11-17T08:26:30.556Z,98503.69
2022-11-17T08:29:03.642Z,98500.81
2022-11-17T08:31:37.318Z,98496.38
2022-11-17T08:34:11.108Z,98510.53
2022-11-17T08:36:44.608Z,98509.75
2022-11-17T08:39:18.009Z,98513.33
2022-11-17T08:41:52.496Z,98518.16
2022-11-17T08:44:25.856Z,98514.31
2022-11-17T08:46:59.438Z,98511.17
2022-11-17T08:49:32.892Z,98507.23
2022-11-17T08:52:06.817Z,98512.66
2022-11-17T08:54:40.367Z,98515.92
2022-11-17T08:57:13.940Z,98517.30
2022-11-17T08:59:47.317Z,98511.69
2022-11-17T09:02:20.705Z,98517.63
2022-11-17T09:04:54.037Z,98509.79
2022-11-17T09:07:32.007Z,98510.80
2022-11-17T09:10:02.939Z,98510.95
2022-11-17T09:12:36.179Z,98508.44
2022-11-17T09:15:12.428Z,98512.54
2022-11-17T09:17:47.540Z,98502.04
2022-11-17T09:20:21.731Z,98506.93
2022-11-17T09:22:55.562Z,98503.05
2022-11-17T09:25:29.141Z,98510.80
2022-11-17T09:28:04.755Z,98510.93
2022-11-17T09:30:39.481Z,98506.85
2022-11-17T09:33:13.045Z,98498.20
2022-11-17T09:35:46.749Z,98500.83
2022-11-17T09:38:20.292Z,98500.41
2022-11-17T09:40:56.783Z,98498.89
2022-11-17T09:43:31.768Z,98494.59
2022-11-17T09:46:08.429Z,98492.59
2022-11-17T09:48:46.735Z,98495.68
2022-11-17T09:51:22.860Z,98492.31
2022-11-17T09:53:59.485Z,98493.72
2022-11-17T09:56:33.503Z,98491.80
2022-11-17T09:59:10.466Z,98493.91
2022-11-17T10:01:44.093Z,98502.02
2022-11-17T10:04:18.792Z,98497.76
2022-11-17T10:06:52.860Z,98499.78
2022-11-17T10:09:29.492Z,98503.59
2022-11-17T10:12:08.903Z,98509.28
2022-11-17T10:14:42.826Z,98516.34
2022-11-17T10:17:16.696Z,98510.53
2022-11-17T10:19:50.270Z,98505.50
2022-11-17T10:22:29.181Z,98505.80
2022-11-17T10:25:03.096Z,98509.03
2022-11-17T10:27:37.066Z,98507.13
2022-11-17T10:30:17.991Z,98507.42
2022-11-17T10:32:53.433Z,98504.39
2022-11-17T10:35:28.686Z,98508.06
2022-11-17T10:38:04.086Z,98507.20
2022-11-17T10:40:48.856Z,98503.69
2022-11-17T10:43:26.612Z,98496.80
2022-11-17T10:46:02.960Z,98504.34
2022-11-17T10:48:37.403Z,98507.06
2022-11-17T10:51:24.545Z,98503.69
2022-11-17T10:54:06.625Z,98508.87
2022-11-17T10:56:45.531Z,98511.57
2022-11-17T10:59:21.120Z,98511.44
2022-11-17T11:01:55.388Z,98509.58
2022-11-17T11:04:34.489Z,98509.76
2022-11-17T11:07:14.414Z,98517.66
2022-11-17T11:09:52.091Z,98511.57
2022-11-17T11:12:25.955Z,98517.41
2022-11-17T11:15:01.569Z,98517.92
2022-11-17T11:17:35.343Z,98513.95
2022-11-17T11:20:15.767Z,98509.89
2022-11-17T11:22:52.868Z,98508.78
2022-11-17T11:25:33.672Z,98512.84
2022-11-17T11:28:18.617Z,98521.30
2022-11-17T11:30:57.305Z,98515.80
2022-11-17T11:33:36.359Z,98519.17
2022-11-17T11:36:25.891Z,98514.94
2022-11-17T11:39:03.502Z,98514.94
2022-11-17T11:42:08.127Z,98518.56
2022-11-17T11:44:49.728Z,98517.67
2022-11-17T11:47:30.762Z,98513.44
2022-11-17T11:50:07.276Z,98518.25
2022-11-17T11:52:43.754Z,98520.98
2022-11-17T11:58:06.266Z,98514.86
2022-11-17T12:00:41.387Z,98525.68
2022-11-17T12:03:22.408Z,98524.56
2022-11-17T12:06:09.549Z,98525.69
2022-11-17T12:08:45.735Z,98525.56
2022-11-17T12:11:37.357Z,98518.17
2022-11-17T12:14:14.241Z,98518.92
2022-11-17T12:16:49.512Z,98527.86
2022-11-17T12:20:09.281Z,98530.86
2022-11-17T12:23:02.927Z,98530.44
2022-11-17T12:25:38.212Z,98529.91
2022-11-17T12:31:38.507Z,98523.55
2022-11-17T12:34:32.610Z,98523.30
2022-11-17T12:37:25.449Z,98522.91
2022-11-17T12:40:03.942Z,98525.59
2022-11-17T12:42:38.196Z,98532.07
2022-11-17T12:45:13.923Z,98531.95
2022-11-17T12:48:05.228Z,98535.98
2022-11-17T12:50:32.300Z,98535.03
2022-11-17T12:53:32.245Z,98534.02
2022-11-17T12:56:51.541Z,98534.75
2022-11-17T13:02:44.510Z,98541.02
2022-11-17T13:05:20.986Z,98544.36
2022-11-17T13:08:10.487Z,98545.77
2022-11-17T13:10:44.062Z,98543.76
2022-11-17T13:13:21.173Z,98547.98
2022-11-17T13:15:56.691Z,98545.36
2022-11-17T13:18:33.727Z,98555.75
2022-11-17T13:21:17.400Z,98542.80
2022-11-17T13:23:50.954Z,98545.73
2022-11-17T13:26:26.902Z,98547.58
2022-11-17T13:29:07.616Z,98548.61
2022-11-17T13:31:40.993Z,98550.59
2022-11-17T13:34:21.454Z,98555.90
2022-11-17T13:36:59.357Z,98559.70
2022-11-17T13:39:32.571Z,98562.53
2022-11-17T13:42:06.365Z,98558.42
2022-11-17T13:44:40.221Z,98562.97
2022-11-17T13:47:24.576Z,98560.85
2022-11-17T13:49:59.416Z,98569.55
2022-11-17T13:52:45.379Z,98566.36
2022-11-17T13:58:01.096Z,98566.75
2022-11-17T14:00:35.193Z,98569.95
2022-11-17T14:03:22.314Z,98578.20
2022-11-17T14:05:59.028Z,98576.14
2022-11-17T14:08:34.435Z,98576.52
2022-11-17T14:11:18.612Z,98574.61
2022-11-17T14:13:54.220Z,98580.27
2022-11-17T14:16:30.332Z,98574.75
2022-11-17T14:19:05.733Z,98574.41
2022-11-17T14:21:40.649Z,98574.95
2022-11-17T14:24:18.431Z,98574.69
2022-11-17T14:26:51.945Z,98575.31
2022-11-17T14:29:26.174Z,98573.28
2022-11-17T14:32:00.191Z,98573.05
2022-11-17T14:34:33.925Z,98576.30
2022-11-17T14:37:10.364Z,98571.83
2022-11-17T14:39:42.460Z,98573.25
2022-11-17T14:42:15.966Z,98572.11
2022-11-17T14:44:49.370Z,98575.36
2022-11-17T14:47:22.920Z,98579.39
2022-11-17T14:49:56.962Z,98579.12
2022-11-17T14:52:30.454Z,98584.75
2022-11-17T14:55:03.866Z,98581.26
2022-11-17T14:57:37.642Z,98581.06
2022-11-17T15:00:18.829Z,98587.76
2022-11-17T15:02:51.444Z,98589.94
2022-11-17T15:05:24.876Z,98592.98
2022-11-17T15:07:59.781Z,98584.33
2022-11-17T15:10:33.116Z,98585.02
2022-11-17T15:13:06.609Z,98580.63
2022-11-17T15:15:40.208Z,98577.02
2022-11-17T15:18:14.434Z,98583.80
2022-11-17T15:20:47.784Z,98581.58
2022-11-17T15:23:21.268Z,98581.41
2022-11-17T15:25:54.606Z,98570.17
2022-11-17T15:28:30.481Z,98571.59
2022-11-17T15:31:10.208Z,98576.06
2022-11-17T15:33:44.440Z,98567.28
2022-11-17T15:36:20.066Z,98576.95
2022-11-17T15:38:54.058Z,98574.83
2022-11-17T15:41:32.779Z,98572.55
2022-11-17T15:44:04.856Z,98573.25
2022-11-17T15:46:41.614Z,98573.78
2022-11-17T15:49:14.166Z,98568.32
2022-11-17T15:51:48.271Z,98569.02
2022-11-17T15:54:23.467Z,98570.87
2022-11-17T15:56:57.062Z,98564.91
2022-11-17T15:59:30.572Z,98566.69
2022-11-17T16:02:12.354Z,98565.09
2022-11-17T16:04:46.377Z,98566.66
2022-11-17T16:07:19.926Z,98560.55
2022-11-17T16:09:53.895Z,98568.09
2022-11-17T16:12:27.466Z,98565.26
2022-11-17T16:15:01.102Z,98560.47
2022-11-17T16:17:34.897Z,98562.23
2022-11-17T16:20:11.566Z,98570.85
2022-11-17T16:22:45.189Z,98571.72
2022-11-17T16:25:18.679Z,98566.54
2022-11-17T16:27:52.239Z,98565.91
2022-11-17T16:30:31.391Z,98560.28
2022-11-17T16:33:02.754Z,98554.63
2022-11-17T16:35:36.284Z,98557.50
2022-11-17T16:38:11.456Z,98560.92
2022-11-17T16:40:45.530Z,98555.25
2022-11-17T16:43:18.873Z,98548.58
2022-11-17T16:45:52.234Z,98554.54
2022-11-17T16:48:25.702Z,98546.89
2022-11-17T16:50:59.164Z,98553.75
2022-11-17T16:53:32.739Z,98547.94
2022-11-17T16:56:08.180Z,98540.47
2022-11-17T16:58:41.891Z,98545.38
2022-11-17T17:01:17.771Z,98540.36
2022-11-17T17:03:51.482Z,98542.05
2022-11-17T17:06:25.309Z,98539.64
2022-11-17T17:08:59.829Z,98547.14
2022-11-17T17:11:35.407Z,98545.56
2022-11-17T17:14:10.748Z,98549.05
2022-11-17T17:16:45.122Z,98539.03
2022-11-17T17:19:19.277Z,98544.59
2022-11-17T17:21:52.987Z,98537.91
2022-11-17T17:24:26.454Z,98543.80
2022-11-17T17:26:59.966Z,98543.63
2022-11-17T17:29:33.559Z,98538.52
2022-11-17T17:32:07.457Z,98537.66
2022-11-17T17:34:41.083Z,98536.80
2022-11-17T17:37:14.187Z,98541.97
2022-11-17T17:39:47.782Z,98535.89
2022-11-17T17:42:21.523Z,98528.02
2022-11-17T17:44:54.944Z,98532.23
2022-11-17T17:47:28.151Z,98531.52
2022-11-17T17:50:02.407Z,98535.11
2022-11-17T17:52:36.122Z,98532.30
2022-11-17T17:55:11.702Z,98531.52
2022-11-17T17:57:45.264Z,98533.20
2022-11-17T18:00:20.953Z,98528.02
2022-11-17T18:02:54.494Z,98527.12
2022-11-17T18:05:28.448Z,98523.07
2022-11-17T18:08:02.248Z,98535.56
2022-11-17T18:10:37.232Z,98534.38
2022-11-17T18:13:11.122Z,98530.88
2022-11-17T18:15:44.762Z,98525.59
2022-11-17T18:18:18.412Z,98534.07
2022-11-17T18:20:57.773Z,98530.55
2022-11-17T18:23:34.029Z,98529.42
2022-11-17T18:26:16.511Z,98526.73
2022-11-17T18:28:54.752Z,98525.75
2022-11-17T18:31:30.197Z,98523.99
2022-11-17T18:34:05.567Z,98526.47
2022-11-17T18:36:39.066Z,98530.06
2022-11-17T18:39:12.661Z,98531.11
2022-11-17T18:41:47.174Z,98534.60
2022-11-17T18:44:21.051Z,98532.95
2022-11-17T18:46:59.635Z,98524.59
2022-11-17T18:49:30.063Z,98530.22
2022-11-17T18:52:03.434Z,98528.30
2022-11-17T18:54:37.774Z,98539.36
2022-11-17T18:57:11.332Z,98540.89
2022-11-17T18:59:44.887Z,98543.26
2022-11-17T19:02:18.520Z,98541.61
2022-11-17T19:04:52.231Z,98541.50
2022-11-17T19:07:26.036Z,98542.47
2022-11-17T19:09:59.798Z,98535.53
2022-11-17T19:12:34.327Z,98534.67
2022-11-17T19:15:09.282Z,98532.65
2022-11-17T19:17:42.997Z,98529.08
2022-11-17T19:20:17.284Z,98523.80
2022-11-17T19:22:51.022Z,98515.37
2022-11-17T19:25:24.341Z,98527.06
2022-11-17T19:27:58.830Z,98522.03
2022-11-17T19:30:32.326Z,98522.23
2022-11-17T19:33:05.838Z,98512.89
2022-11-17T19:35:42.199Z,98509.30
2022-11-17T19:38:15.667Z,98512.55
2022-11-17T19:40:49.263Z,98525.56
2022-11-17T19:43:24.073Z,98516.34
2022-11-17T19:46:01.603Z,98512.97
2022-11-17T19:48:35.533Z,98514.73
2022-11-17T19:51:17.397Z,98510.42
2022-11-17T19:53:52.282Z,98513.95
2022-11-17T19:56:27.230Z,98504.72
2022-11-17T19:59:01.270Z,98504.54
2022-11-17T20:01:35.442Z,98500.23
2022-11-17T20:04:09.448Z,98508.77
2022-11-17T20:06:43.250Z,98498.50
2022-11-17T20:09:17.032Z,98502.78
2022-11-17T20:11:51.759Z,98508.21
2022-11-17T20:14:25.247Z,98503.91
2022-11-17T20:16:58.696Z,98494.53
2022-11-17T20:19:32.040Z,98502.17
2022-11-17T20:22:05.633Z,98500.23
2022-11-17T20:24:39.019Z,98502.70
2022-11-17T20:27:12.413Z,98503.59
2022-11-17T20:29:46.014Z,98504.46
2022-11-17T20:32:19.604Z,98492.77
2022-11-17T20:34:53.234Z,98495.55
2022-11-17T20:37:26.823Z,98498.80
2022-11-17T20:40:01.935Z,98490.22
2022-11-17T20:42:35.582Z,98477.22
2022-11-17T20:45:10.989Z,98494.98
2022-11-17T20:47:44.420Z,98488.31
2022-11-17T20:50:18.629Z,98488.38
2022-11-17T20:52:52.212Z,98481.45
2022-11-17T20:55:25.816Z,98485.58
2022-11-17T20:57:59.328Z,98481.27
2022-11-17T21:00:32.790Z,98481.98
2022-11-17T21:03:06.513Z,98469.16
2022-11-17T21:05:40.098Z,98472.50
2022-11-17T21:08:13.450Z,98464.06
2022-11-17T21:10:46.844Z,98461.44
2022-11-17T21:13:20.493Z,98461.52
2022-11-17T21:16:09.738Z,98448.55
2022-11-17T21:18:47.698Z,98463.50
2022-11-17T21:21:21.533Z,98465.15
2022-11-17T21:23:56.742Z,98459.34
2022-11-17T21:26:30.553Z,98451.47
2022-11-17T21:29:06.972Z,98454.17
2022-11-17T21:31:40.092Z,98461.81
2022-11-17T21:34:17.630Z,98462.52
2022-11-17T21:36:51.101Z,98450.77
2022-11-17T21:39:24.723Z,98449.34
2022-11-17T21:41:58.403Z,98453.72
2022-11-17T21:44:33.275Z,98447.84
2022-11-17T21:47:09.103Z,98452.94
2022-11-17T21:49:42.656Z,98450.98
2022-11-17T21:52:16.251Z,98451.55
2022-11-17T21:54:50.021Z,98448.84
2022-11-17T21:57:23.656Z,98449.00
2022-11-17T21:59:57.195Z,98437.95
2022-11-17T22:02:30.734Z,98437.69
2022-11-17T22:05:04.259Z,98437.61
2022-11-17T22:07:37.899Z,98439.30
2022-11-17T22:10:12.521Z,98441.84
2022-11-17T22:12:45.997Z,98436.64
2022-11-17T22:15:19.843Z,98431.31
2022-11-17T22:17:53.424Z,98424.38
2022-11-17T22:20:27.286Z,98423.26
2022-11-17T22:23:00.839Z,98428.16
2022-11-17T22:25:49.840Z,98432.55
2022-11-17T22:28:09.646Z,98428.27
2022-11-17T22:30:43.068Z,98433.26
2022-11-17T22:33:16.888Z,98434.23
2022-11-17T22:35:51.105Z,98436.78
2022-11-17T22:38:26.374Z,98441.01
2022-11-17T22:41:02.987Z,98430.82
2022-11-17T22:43:37.024Z,98435.02
2022-11-17T22:46:12.980Z,98437.75
2022-11-17T22:48:46.598Z,98431.84
2022-11-17T22:51:39.566Z,98437.75
2022-11-17T22:54:13.361Z,98435.36
2022-11-17T22:56:47.141Z,98443.78
2022-11-17T22:59:21.327Z,98438.69
2022-11-17T23:01:55.514Z,98432.55
2022-11-17T23:04:28.990Z,98429.14
2022-11-17T23:07:02.760Z,98429.30
2022-11-17T23:09:36.343Z,98426.75
2022-11-17T23:12:10.341Z,98428.43
2022-11-17T23:14:43.693Z,98433.26
2022-11-17T23:17:17.641Z,98423.63
2022-11-17T23:19:51.682Z,98431.34
2022-11-17T23:22:25.256Z,98428.16
2022-11-17T23:24:58.976Z,98424.05
2022-11-17T23:27:34.210Z,98425.02
2022-11-17T23:30:09.832Z,98413.22
2022-11-17T23:32:43.662Z,98417.38
2022-11-17T23:35:17.289Z,98415.62
2022-11-17T23:37:50.866Z,98413.07
2022-11-17T23:40:25.026Z,98404.53
2022-11-17T23:42:58.699Z,98401.20
2022-11-17T23:45:32.192Z,98398.58
2022-11-17T23:48:05.900Z,98401.91
2022-11-17T23:50:40.684Z,98396.66
2022-11-17T23:53:14.320Z,98393.94
2022-11-17T23:55:56.241Z,98389.66
2022-11-17T23:58:30.099Z,98383.59
